Time,TemperatureF,DewpointF,PressureIn,WindDirection,WindDirectionDegrees,WindSpeedMPH,WindSpeedGustMPH,Humidity,HourlyPrecipIn,Conditions,Clouds,dailyrainin,SoftwareType,DateUTC
2013-04-11 00:00:00,77.8,58.2,29.73,SW,217,5.8,5.8,51,0.00,CLR,FEW,0.00,WeatherDisplay:10.37,2013-04-11 05:00:00,
2013-04-11 00:05:00,77.7,58.1,29.73,SSE,157,9.2,9.2,51,0.00,CLR,FEW,0.00,WeatherDisplay:10.37,2013-04-11 05:05:00,
2013-04-11 00:10:00,77.7,58.7,29.72,SSE,167,4.6,4.6,52,0.00,CLR,FEW,0.00,WeatherDisplay:10.37,2013-04-11 05:10:00,
2013-04-11 00:15:00,77.6,58.6,29.73,South,173,4.6,4.6,52,0.00,CLR,FEW,0.00,WeatherDisplay:10.37,2013-04-11 05:15:00,
2013-04-11 00:20:00,77.7,58.7,29.72,South,175,8.1,8.1,52,0.00,CLR,FEW,0.00,WeatherDisplay:10.37,2013-04-11 05:20:00,
2013-04-11 00:25:00,77.7,58.7,29.72,South,189,6.9,6.9,52,0.00,CLR,FEW,0.00,WeatherDisplay:10.37,2013-04-11 05:25:00,
2013-04-11 00:30:00,77.7,58.7,29.72,SSE,159,6.9,6.9,52,0.00,CLR,FEW,0.00,WeatherDisplay:10.37,2013-04-11 05:30:00,
2013-04-11 00:35:00,77.7,58.7,29.71,WSW,237,6.9,6.9,52,0.00,CLR,FEW,0.00,WeatherDisplay:10.37,2013-04-11 05:35:00,
2013-04-11 00:40:00,77.6,59.1,29.71,South,185,13.8,13.8,53,0.00,CLR,FEW,0.00,WeatherDisplay:10.37,2013-04-11 05:40:00,
2013-04-11 00:45:00,77.4,58.9,29.72,SSE,158,8.1,8.1,53,0.00,CLR,FEW,0.00,WeatherDisplay:10.37,2013-04-11 05:45:00,
2013-04-11 00:50:00,77.5,59.0,29.72,SSW,207,8.1,8.1,53,0.00,CLR,FEW,0.00,WeatherDisplay:10.37,2013-04-11 05:50:00,
2013-04-11 00:55:00,77.6,59.1,29.72,SW,217,13.8,13.8,53,0.00,CLR,FEW,0.00,WeatherDisplay:10.37,2013-04-11 05:55:00,
2013-04-11 01:00:00,77.6,59.1,29.72,SW,219,4.6,4.6,53,0.00,CLR,FEW,0.00,WeatherDisplay:10.37,2013-04-11 06:00:00,
2013-04-11 01:05:00,77.5,59.5,29.72,South,169,10.4,10.4,54,0.00,FEW,,0.00,WeatherDisplay:10.37,2013-04-11 06:05:00,
2013-04-11 01:10:00,77.5,59.5,29.72,SSE,159,8.1,8.1,54,0.00,FEW,,0.00,WeatherDisplay:10.37,2013-04-11 06:10:00,
2013-04-11 01:15:00,77.4,60.0,29.72,SW,219,6.9,6.9,55,0.00,FEW,,0.00,WeatherDisplay:10.37,2013-04-11 06:15:00,
2013-04-11 01:20:00,77.2,60.3,29.72,South,180,2.3,2.5,56,0.00,FEW,,0.00,WeatherDisplay:10.37,2013-04-11 06:20:00,
2013-04-11 01:25:00,76.8,59.9,29.72,SSW,202,8.1,8.1,56,0.00,FEW,,0.00,WeatherDisplay:10.37,2013-04-11 06:25:00,
2013-04-11 01:30:00,76.6,59.7,29.71,South,169,8.1,8.1,56,0.00,FEW,,0.00,WeatherDisplay:10.37,2013-04-11 06:30:00,
2013-04-11 01:35:00,76.5,60.1,29.70,SSE,150,3.5,3.5,57,0.00,FEW,,0.00,WeatherDisplay:10.37,2013-04-11 06:35:00,
2013-04-11 01:40:00,76.3,59.9,29.70,South,171,3.5,3.5,57,0.00,FEW,,0.00,WeatherDisplay:10.37,2013-04-11 06:40:00,
2013-04-11 01:45:00,76.3,60.4,29.69,SSW,209,6.9,6.9,58,0.00,FEW,,0.00,WeatherDisplay:10.37,2013-04-11 06:45:00,
2013-04-11 01:50:00,76.4,60.5,29.69,SSW,207,5.8,5.8,58,0.00,FEW,,0.00,WeatherDisplay:10.37,2013-04-11 06:50:00,
2013-04-11 01:55:00,76.2,60.3,29.69,South,179,4.6,4.6,58,0.00,FEW,,0.00,WeatherDisplay:10.37,2013-04-11 06:55:00,
2013-04-11 02:00:00,76.1,60.7,29.70,SSE,159,5.8,5.8,59,0.00,FEW,,0.00,WeatherDisplay:10.37,2013-04-11 07:00:00,
2013-04-11 02:05:00,76.1,60.7,29.70,South,188,6.9,6.9,59,0.00,OVC,FEW,0.00,WeatherDisplay:10.37,2013-04-11 07:05:00,
2013-04-11 02:10:00,76.1,61.2,29.70,South,174,8.1,8.1,60,0.00,OVC,FEW,0.00,WeatherDisplay:10.37,2013-04-11 07:10:00,
2013-04-11 02:15:00,76.1,61.2,29.69,South,181,6.9,6.9,60,0.00,OVC,FEW,0.00,WeatherDisplay:10.37,2013-04-11 07:15:00,
2013-04-11 02:20:00,76.1,61.2,29.69,East,100,3.5,3.5,60,0.00,OVC,FEW,0.00,WeatherDisplay:10.37,2013-04-11 07:20:00,
2013-04-11 02:25:00,76.0,61.6,29.69,SW,217,2.3,2.4,61,0.00,OVC,FEW,0.00,WeatherDisplay:10.37,2013-04-11 07:25:00,
2013-04-11 02:31:00,75.9,61.5,29.69,SSE,168,5.8,5.8,61,0.00,OVC,FEW,0.00,WeatherDisplay:10.37,2013-04-11 07:31:00,
2013-04-11 02:36:00,75.7,61.3,29.70,SE,143,6.4,6.4,61,0.00,OVC,FEW,0.00,WeatherDisplay:10.37,2013-04-11 07:36:00,
2013-04-11 02:41:00,75.7,61.3,29.71,SSE,159,1.1,1.4,61,0.00,OVC,FEW,0.00,WeatherDisplay:10.37,2013-04-11 07:41:00,
2013-04-11 02:46:00,75.7,61.8,29.70,SSW,194,4.6,4.6,62,0.00,OVC,FEW,0.00,WeatherDisplay:10.37,2013-04-11 07:46:00,
2013-04-11 02:51:00,75.7,61.8,29.70,South,175,3.5,3.5,62,0.00,OVC,FEW,0.00,WeatherDisplay:10.37,2013-04-11 07:51:00,
2013-04-11 02:56:00,75.6,62.1,29.70,South,186,6.9,6.9,63,0.00,OVC,FEW,0.00,WeatherDisplay:10.37,2013-04-11 07:56:00,
2013-04-11 13:44:00,62.4,61.5,29.69,West,277,2.3,2.3,97,0.27,RA,FEW,1.98,WeatherDisplay:10.37,2013-04-11 18:44:00,
2013-04-11 13:49:00,62.4,61.5,29.69,West,277,5.8,5.8,97,0.30,RA,FEW,2.01,WeatherDisplay:10.37,2013-04-11 18:49:00,
2013-04-11 13:54:00,62.3,61.4,29.68,NW,325,2.3,2.3,97,0.30, +RA,FEW,2.02,WeatherDisplay:10.37,2013-04-11 18:54:00,
2013-04-11 13:59:00,62.2,61.3,29.68,NW,324,2.3,2.3,97,0.30, +RA,FEW,2.03,WeatherDisplay:10.37,2013-04-11 18:59:00,
2013-04-11 14:04:00,62.1,61.2,29.68,NNW,334,2.3,2.3,97,0.30,RA,FEW,2.03,WeatherDisplay:10.37,2013-04-11 19:04:00,
2013-04-11 14:09:00,61.8,60.6,29.68,NNW,334,0.0,0.0,96,0.28,OVC,FEW,2.03,WeatherDisplay:10.37,2013-04-11 19:09:00,
2013-04-11 14:14:00,61.8,60.6,29.69,NNW,334,0.0,0.0,96,0.28,RA,FEW,2.04,WeatherDisplay:10.37,2013-04-11 19:14:00,
2013-04-11 14:19:00,61.7,60.5,29.69,NNW,333,1.1,1.1,96,0.25, +RA,FEW,2.05,WeatherDisplay:10.37,2013-04-11 19:19:00,
2013-04-11 14:24:00,61.6,60.4,29.68,NNW,333,0.0,0.0,96,0.22, +RA,FEW,2.07,WeatherDisplay:10.37,2013-04-11 19:24:00,
2013-04-11 14:29:00,61.6,60.4,29.67,NNW,333,0.0,0.0,96,0.20, +RA,FEW,2.08,WeatherDisplay:10.37,2013-04-11 19:29:00,
2013-04-11 14:34:00,61.6,60.7,29.66,NNW,333,0.0,0.0,97,0.17,-RA,FEW,2.11,WeatherDisplay:10.37,2013-04-11 19:34:00,
2013-04-11 14:39:00,61.5,60.6,29.66,NNW,333,0.0,0.0,97,0.16,-RA,FEW,2.12,WeatherDisplay:10.37,2013-04-11 19:39:00,
2013-04-11 14:44:00,61.4,60.5,29.66,NNW,333,0.0,0.0,97,0.16,-RA,FEW,2.14,WeatherDisplay:10.37,2013-04-11 19:44:00,
2013-04-11 14:49:00,61.4,60.5,29.67,NNW,333,0.0,0.0,97,0.14,RA,FEW,2.15,WeatherDisplay:10.37,2013-04-11 19:49:00,
2013-04-11 14:54:00,61.5,60.6,29.67,NNW,333,0.0,0.0,97,0.14,RA,FEW,2.16,WeatherDisplay:10.37,2013-04-11 19:54:00,
2013-04-11 14:59:00,61.5,60.6,29.67,NNW,333,0.0,0.0,97,0.14,RA,FEW,2.18,WeatherDisplay:10.37,2013-04-11 19:59:00,
2013-04-11 15:04:00,61.5,60.6,29.66,NNW,333,0.0,0.0,97,0.16,RA,FEW,2.19,WeatherDisplay:10.37,2013-04-11 20:04:00,
2013-04-11 15:09:00,61.5,60.6,29.65,NNW,333,0.0,0.0,97,0.18,RA,FEW,2.21,WeatherDisplay:10.37,2013-04-11 20:09:00,
2013-04-11 15:14:00,61.4,60.5,29.64,NNW,336,1.1,0.0,97,0.18,RA,FEW,2.23,WeatherDisplay:10.37,2013-04-11 20:14:00,
2013-04-11 15:19:00,61.4,60.5,29.63,NNE,24,3.5,3.5,97,0.18,RA,FEW,2.24,WeatherDisplay:10.37,2013-04-11 20:19:00,
2013-04-11 15:24:00,61.3,60.4,29.62,NE,48,1.1,0.0,97,0.18,RA,FEW,2.25,WeatherDisplay:10.37,2013-04-11 20:24:00,
2013-04-11 15:29:00,61.2,60.3,29.61,NE,46,2.3,2.3,97,0.17,RA,FEW,2.25,WeatherDisplay:10.37,2013-04-11 20:29:00,
2013-04-11 15:34:00,61.1,60.2,29.62,East,89,0.0,0.0,97,0.16,RA,FEW,2.26,WeatherDisplay:10.37,2013-04-11 20:34:00,
2013-04-11 15:39:00,60.9,59.8,29.62,South,170,0.0,0.0,96,0.14,RA,FEW,2.26,WeatherDisplay:10.37,2013-04-11 20:39:00,
2013-04-11 15:44:00,60.8,59.7,29.62,South,170,0.0,0.0,96,0.13,RA,FEW,2.27,WeatherDisplay:10.37,2013-04-11 20:44:00,
2013-04-11 15:49:00,60.7,59.6,29.63,South,171,1.1,1.1,96,0.12,RA,FEW,2.27,WeatherDisplay:10.37,2013-04-11 20:49:00,
2013-04-11 15:54:00,60.7,59.8,29.63,SE,130,2.3,2.3,97,0.11,OVC,FEW,2.27,WeatherDisplay:10.37,2013-04-11 20:54:00,
2013-04-11 15:59:00,60.5,59.4,29.62,SE,130,1.1,0.0,96,0.11,RA,FEW,2.28,WeatherDisplay:10.37,2013-04-11 20:59:00,
2013-04-11 16:04:00,60.4,59.3,29.63,SE,129,2.3,2.3,96,0.10,-RA,FEW,2.29,WeatherDisplay:10.37,2013-04-11 21:04:00,
2013-04-11 16:09:00,60.4,59.5,29.63,SSE,161,1.1,1.1,97,0.09,-RA,FEW,2.30,WeatherDisplay:10.37,2013-04-11 21:09:00,
2013-04-11 16:15:00,60.5,59.6,29.62,ESE,115,0.0,1.4,97,0.09,-RA,FEW,2.31,WeatherDisplay:10.37,2013-04-11 21:15:00,
2013-04-11 16:20:00,60.6,59.7,29.61,ESE,118,5.8,5.8,97,0.08,-RA,FEW,2.31,WeatherDisplay:10.37,2013-04-11 21:20:00,
2013-04-11 16:25:00,60.7,59.8,29.61,ESE,111,3.5,3.5,97,0.07,-RA,FEW,2.32,WeatherDisplay:10.37,2013-04-11 21:25:00,
2013-04-11 16:30:00,60.9,60.0,29.61,SE,146,5.8,5.8,97,0.08,-RA,FEW,2.33,WeatherDisplay:10.37,2013-04-11 21:30:00,
2013-04-11 16:35:00,60.9,60.0,29.60,SE,129,2.3,2.3,97,0.07,-RA,FEW,2.33,WeatherDisplay:10.37,2013-04-11 21:35:00,
2013-04-11 16:40:00,61.0,60.1,29.59,ESE,119,3.5,3.5,97,0.07,-RA,FEW,2.33,WeatherDisplay:10.37,2013-04-11 21:40:00,
2013-04-11 16:45:00,61.0,60.1,29.58,SSE,149,1.1,1.1,97,0.06,-RA,FEW,2.33,WeatherDisplay:10.37,2013-04-11 21:45:00,
2013-04-11 16:50:00,61.1,60.2,29.58,ESE,119,2.3,2.3,97,0.06,-RA,FEW,2.33,WeatherDisplay:10.37,2013-04-11 21:50:00,
2013-04-11 16:55:00,61.1,60.2,29.58,West,263,3.5,3.5,97,0.06,-RA,FEW,2.33,WeatherDisplay:10.37,2013-04-11 21:55:00,
2013-04-11 17:00:00,61.1,60.2,29.58,South,182,0.0,0.0,97,0.05,-RA,FEW,2.33,WeatherDisplay:10.37,2013-04-11 22:00:00,
2013-04-11 17:05:00,61.1,60.2,29.58,SSE,156,1.1,0.0,97,0.04,-RA,FEW,2.33,WeatherDisplay:10.37,2013-04-11 22:05:00,
2013-04-11 17:10:00,61.2,60.3,29.60,South,180,1.1,1.1,97,0.03,-RA,FEW,2.33,WeatherDisplay:10.37,2013-04-11 22:10:00,
2013-04-11 17:15:00,61.2,60.3,29.60,West,276,1.1,1.1,97,0.02,-RA,FEW,2.33,WeatherDisplay:10.37,2013-04-11 22:15:00,
2013-04-11 17:20:00,61.1,60.2,29.61,WSW,258,0.0,0.5,97,0.02,-RA,FEW,2.33,WeatherDisplay:10.37,2013-04-11 22:20:00,
2013-04-11 17:25:00,61.0,60.1,29.62,WNW,290,3.5,3.5,97,0.01,-RA,FEW,2.33,WeatherDisplay:10.37,2013-04-11 22:25:00,
2013-04-11 17:30:00,60.8,59.9,29.63,NW,315,6.9,6.9,97,0.02,-RA,FEW,2.34,WeatherDisplay:10.37,2013-04-11 22:30:00,
2013-04-11 17:35:00,60.2,59.1,29.64,WNW,282,10.4,10.4,96,0.01,-DZ,FEW,2.34,WeatherDisplay:10.37,2013-04-11 22:35:00,
2013-04-11 17:40:00,58.5,56.2,29.63,West,267,12.7,12.7,92,0.02,-DZ,FEW,2.35,WeatherDisplay:10.37,2013-04-11 22:40:00,
2013-04-11 17:45:00,57.3,55.6,29.63,WNW,293,8.1,8.1,94,0.02,-DZ,FEW,2.35,WeatherDisplay:10.37,2013-04-11 22:45:00,
2013-04-11 17:50:00,56.7,55.0,29.60,West,278,5.8,5.8,94,0.02,-DZ,FEW,2.35,WeatherDisplay:10.37,2013-04-11 22:50:00,
2013-04-11 17:55:00,56.2,54.5,29.60,WSW,244,10.4,10.4,94,0.02,-DZ,FEW,2.35,WeatherDisplay:10.37,2013-04-11 22:55:00,
2013-04-11 18:00:00,55.6,53.9,29.58,NNW,336,4.6,4.6,94,0.02,-DZ,FEW,2.35,WeatherDisplay:10.37,2013-04-11 23:00:00,
2013-04-11 18:05:00,55.2,53.8,29.60,WNW,296,5.8,5.8,95,0.02,OVC,FEW,2.35,WeatherDisplay:10.37,2013-04-11 23:05:00,
2013-04-11 18:10:00,54.9,53.5,29.61,WNW,284,6.9,6.9,95,0.02,OVC,FEW,2.35,WeatherDisplay:10.37,2013-04-11 23:10:00,
2013-04-11 18:15:00,54.8,53.7,29.61,West,281,9.2,9.2,96,0.02,OVC,FEW,2.35,WeatherDisplay:10.37,2013-04-11 23:15:00,
2013-04-11 18:20:00,54.5,53.1,29.61,West,270,4.6,4.6,95,0.02,OVC,FEW,2.35,WeatherDisplay:10.37,2013-04-11 23:20:00,
2013-04-11 18:25:00,54.1,53.0,29.62,WNW,291,3.5,3.5,96,0.02,OVC,FEW,2.35,WeatherDisplay:10.37,2013-04-11 23:25:00,
2013-04-11 18:30:00,54.0,52.9,29.62,WNW,293,3.5,3.5,96,0.01,OVC,FEW,2.35,WeatherDisplay:10.37,2013-04-11 23:30:00,
2013-04-11 18:35:00,53.8,52.7,29.62,WNW,288,4.6,4.6,96,0.01,OVC,FEW,2.35,WeatherDisplay:10.37,2013-04-11 23:35:00,
2013-04-11 18:40:00,53.8,52.7,29.61,WSW,257,2.3,2.3,96,0.00,OVC,FEW,2.35,WeatherDisplay:10.37,2013-04-11 23:40:00,
2013-04-11 18:45:00,53.6,52.5,29.63,West,264,3.5,3.5,96,0.00,OVC,FEW,2.35,WeatherDisplay:10.37,2013-04-11 23:45:00,
2013-04-11 18:50:00,53.5,52.4,29.63,West,262,6.9,6.9,96,0.00,-RA,FEW,2.35,WeatherDisplay:10.37,2013-04-11 23:50:00,
2013-04-11 18:55:00,53.3,52.2,29.63,WSW,253,8.1,8.1,96,0.00,-RA,FEW,2.35,WeatherDisplay:10.37,2013-04-11 23:55:00,
2013-04-11 19:00:00,53.1,52.0,29.62,WNW,288,3.5,3.5,96,0.00,-RA,FEW,2.35,WeatherDisplay:10.37,2013-04-12 00:00:00,
2013-04-11 19:05:00,53.0,51.9,29.62,WSW,257,5.8,5.8,96,0.00,-RA,FEW,2.35,WeatherDisplay:10.37,2013-04-12 00:05:00,
2013-04-11 19:10:00,52.9,51.8,29.63,NNW,348,5.8,5.8,96,0.00,-RA,FEW,2.35,WeatherDisplay:10.37,2013-04-12 00:10:00,
2013-04-11 19:15:00,52.8,51.7,29.63,West,281,8.1,8.1,96,0.00,-RA,FEW,2.35,WeatherDisplay:10.37,2013-04-12 00:15:00,
2013-04-11 19:20:00,52.6,51.5,29.63,SW,223,2.3,2.3,96,0.00,-DZ,FEW,2.35,WeatherDisplay:10.37,2013-04-12 00:20:00,
2013-04-11 19:25:00,52.6,51.8,29.64,SW,236,2.3,2.5,97,0.00,-DZ,FEW,2.35,WeatherDisplay:10.37,2013-04-12 00:25:00,
2013-04-11 19:30:00,52.5,51.4,29.65,WSW,244,2.3,2.3,96,0.00,-DZ,FEW,2.35,WeatherDisplay:10.37,2013-04-12 00:30:00,
2013-04-11 19:35:00,52.3,51.2,29.65,West,280,4.6,4.6,96,0.00,-RA,FEW,2.35,WeatherDisplay:10.37,2013-04-12 00:35:00,
2013-04-11 19:40:00,52.1,51.0,29.65,WNW,295,5.8,5.8,96,0.00,-RA,FEW,2.35,WeatherDisplay:10.37,2013-04-12 00:40:00,
2013-04-11 19:46:00,51.9,50.5,29.65,WSW,253,6.9,6.9,95,0.00,-RA,FEW,2.35,WeatherDisplay:10.37,2013-04-12 00:46:00,
2013-04-11 19:51:00,51.7,50.6,29.65,WNW,294,5.8,5.8,96,0.00,-RA,FEW,2.35,WeatherDisplay:10.37,2013-04-12 00:51:00,
2013-04-11 19:56:00,51.6,50.5,29.66,WNW,295,6.9,6.9,96,0.00,-RA,FEW,2.35,WeatherDisplay:10.37,2013-04-12 00:56:00,
2013-04-11 20:01:00,51.6,50.5,29.66,WNW,284,3.5,3.5,96,0.00,-RA,FEW,2.35,WeatherDisplay:10.37,2013-04-12 01:01:00,
2013-04-11 20:06:00,51.5,50.4,29.66,WNW,290,3.5,3.5,96,0.00,-RA,FEW,2.35,WeatherDisplay:10.37,2013-04-12 01:06:00,
2013-04-11 20:11:00,51.4,50.3,29.67,WNW,292,9.2,9.2,96,0.00,-RA,FEW,2.35,WeatherDisplay:10.37,2013-04-12 01:11:00,
2013-04-11 20:16:00,51.4,50.3,29.67,West,277,8.1,8.1,96,0.00,-RA,FEW,2.35,WeatherDisplay:10.37,2013-04-12 01:16:00,
2013-04-11 20:22:00,51.3,50.2,29.68,WNW,285,5.8,5.8,96,0.00,-RA,FEW,2.35,WeatherDisplay:10.37,2013-04-12 01:22:00,
2013-04-11 20:27:00,51.2,49.8,29.68,West,269,6.4,6.4,95,0.00,-RA,FEW,2.35,WeatherDisplay:10.37,2013-04-12 01:27:00,
2013-04-11 20:32:00,51.2,49.8,29.68,West,259,12.7,12.7,95,0.00,-RA,FEW,2.35,WeatherDisplay:10.37,2013-04-12 01:32:00,
2013-04-11 20:37:00,51.1,49.7,29.68,NW,309,5.8,5.8,95,0.00,OVC,FEW,2.35,WeatherDisplay:10.37,2013-04-12 01:37:00,
2013-04-11 20:42:00,51.1,49.7,29.68,NW,311,8.1,8.1,95,0.00,OVC,FEW,2.35,WeatherDisplay:10.37,2013-04-12 01:42:00,
2013-04-11 20:47:00,51.0,49.3,29.68,WNW,294,8.1,8.1,94,0.00,OVC,FEW,2.35,WeatherDisplay:10.37,2013-04-12 01:47:00,
2013-04-11 20:52:00,50.9,49.5,29.68,SW,234,3.2,3.2,95,0.00,OVC,FEW,2.35,WeatherDisplay:10.37,2013-04-12 01:52:00,
2013-04-11 20:57:00,51.0,49.6,29.68,WSW,251,4.6,4.6,95,0.00,OVC,FEW,2.35,WeatherDisplay:10.37,2013-04-12 01:57:00,
2013-04-11 21:02:00,50.9,49.5,29.69,WNW,296,6.9,6.9,95,0.00,OVC,FEW,2.35,WeatherDisplay:10.37,2013-04-12 02:02:00,
2013-04-11 21:07:00,50.9,49.2,29.69,West,272,9.2,9.2,94,0.00,OVC,FEW,2.35,WeatherDisplay:10.37,2013-04-12 02:07:00,
2013-04-11 21:12:00,50.9,49.2,29.68,WNW,295,2.1,2.1,94,0.00,OVC,FEW,2.35,WeatherDisplay:10.37,2013-04-12 02:12:00,
2013-04-11 21:17:00,50.9,49.5,29.68,WNW,288,3.2,3.2,95,0.00,OVC,FEW,2.35,WeatherDisplay:10.37,2013-04-12 02:17:00,
2013-04-11 21:22:00,50.9,49.5,29.67,West,271,8.1,8.1,95,0.00,OVC,FEW,2.35,WeatherDisplay:10.37,2013-04-12 02:22:00,
2013-04-11 21:27:00,50.9,49.5,29.68,WSW,237,3.5,3.5,95,0.00,OVC,FEW,2.35,WeatherDisplay:10.37,2013-04-12 02:27:00,
2013-04-11 21:32:00,50.9,49.2,29.68,WSW,251,3.5,3.5,94,0.00,OVC,FEW,2.35,WeatherDisplay:10.37,2013-04-12 02:32:00,
2013-04-11 21:38:00,50.8,49.1,29.69,West,259,12.7,12.7,94,0.00,OVC,FEW,2.35,WeatherDisplay:10.37,2013-04-12 02:38:00,
2013-04-11 21:43:00,50.7,48.7,29.69,WNW,286,8.1,8.1,93,0.00,OVC,FEW,2.35,WeatherDisplay:10.37,2013-04-12 02:43:00,
2013-04-11 21:48:00,50.7,48.7,29.69,WSW,249,10.4,10.4,93,0.00,OVC,FEW,2.35,WeatherDisplay:10.37,2013-04-12 02:48:00,
2013-04-11 21:53:00,50.6,48.4,29.69,WSW,246,8.1,8.1,92,0.00,OVC,FEW,2.35,WeatherDisplay:10.37,2013-04-12 02:53:00,
2013-04-11 21:58:00,50.6,48.7,29.69,WNW,282,8.6,8.6,93,0.00,OVC,FEW,2.35,WeatherDisplay:10.37,2013-04-12 02:58:00,
2013-04-11 22:03:00,50.6,48.4,29.69,NW,318,8.1,8.1,92,0.00,OVC,FEW,2.35,WeatherDisplay:10.37,2013-04-12 03:03:00,
2013-04-11 22:08:00,50.5,48.3,29.70,West,259,8.1,8.1,92,0.00,OVC,FEW,2.35,WeatherDisplay:10.37,2013-04-12 03:08:00,
2013-04-11 22:13:00,50.5,48.0,29.71,WSW,244,9.2,9.2,91,0.00,OVC,FEW,2.35,WeatherDisplay:10.37,2013-04-12 03:13:00,
2013-04-11 22:18:00,50.5,48.3,29.71,West,267,8.1,8.1,92,0.00,OVC,FEW,2.35,WeatherDisplay:10.37,2013-04-12 03:18:00,
2013-04-11 22:23:00,50.4,48.2,29.71,West,259,4.6,4.6,92,0.00,OVC,FEW,2.35,WeatherDisplay:10.37,2013-04-12 03:23:00,
2013-04-11 22:28:00,50.3,47.8,29.71,West,276,4.6,4.6,91,0.00,OVC,FEW,2.35,WeatherDisplay:10.37,2013-04-12 03:28:00,
2013-04-11 22:33:00,50.3,47.8,29.72,WNW,284,4.6,4.6,91,0.00,OVC,FEW,2.35,WeatherDisplay:10.37,2013-04-12 03:33:00,
2013-04-11 22:38:00,50.3,47.5,29.72,SW,224,5.8,5.8,90,0.00,OVC,FEW,2.35,WeatherDisplay:10.37,2013-04-12 03:38:00,
2013-04-11 22:43:00,50.2,47.7,29.72,WNW,292,8.1,8.1,91,0.00,OVC,FEW,2.35,WeatherDisplay:10.37,2013-04-12 03:43:00,
2013-04-11 22:48:00,50.2,47.7,29.72,West,271,5.8,5.8,91,0.00,OVC,FEW,2.35,WeatherDisplay:10.37,2013-04-12 03:48:00,
2013-04-11 22:53:00,50.1,47.6,29.72,WSW,246,3.5,3.5,91,0.00,OVC,FEW,2.35,WeatherDisplay:10.37,2013-04-12 03:53:00,
2013-04-11 22:58:00,50.1,47.3,29.72,SW,219,11.5,11.5,90,0.00,OVC,FEW,2.35,WeatherDisplay:10.37,2013-04-12 03:58:00,
2013-04-11 23:00:00,50.0,47.2,29.72,WNW,292,9.2,9.2,90,0.00,OVC,FEW,2.35,WeatherDisplay:10.37,2013-04-12 04:00:00,
2013-04-11 23:05:00,50.0,47.5,29.73,SW,220,4.6,4.6,91,0.00,OVC,FEW,2.35,WeatherDisplay:10.37,2013-04-12 04:05:00,
2013-04-11 23:10:00,49.9,47.4,29.73,West,271,5.8,5.8,91,0.00,OVC,FEW,2.35,WeatherDisplay:10.37,2013-04-12 04:10:00,
2013-04-11 23:15:00,49.8,47.0,29.73,West,275,4.6,4.6,90,0.00,OVC,FEW,2.35,WeatherDisplay:10.37,2013-04-12 04:15:00,
2013-04-11 23:20:00,49.8,47.0,29.73,West,272,4.6,4.6,90,0.00,OVC,FEW,2.35,WeatherDisplay:10.37,2013-04-12 04:20:00,
2013-04-11 23:25:00,49.7,46.9,29.74,SW,236,6.9,6.9,90,0.00,OVC,FEW,2.35,WeatherDisplay:10.37,2013-04-12 04:25:00,
2013-04-11 23:30:00,49.7,46.9,29.74,South,189,5.8,5.8,90,0.00,OVC,FEW,2.35,WeatherDisplay:10.37,2013-04-12 04:30:00,
2013-04-11 23:35:00,49.6,46.8,29.74,WSW,256,1.1,1.1,90,0.00,OVC,FEW,2.35,WeatherDisplay:10.37,2013-04-12 04:35:00,
2013-04-11 23:40:00,49.5,46.7,29.74,WSW,250,4.6,4.6,90,0.00,OVC,FEW,2.35,WeatherDisplay:10.37,2013-04-12 04:40:00,
2013-04-11 23:45:00,49.4,46.6,29.74,West,270,3.5,3.5,90,0.00,OVC,FEW,2.35,WeatherDisplay:10.37,2013-04-12 04:45:00,
2013-04-11 23:50:00,49.2,46.4,29.74,NW,308,1.1,0.0,90,0.00,SCT,FEW,2.35,WeatherDisplay:10.37,2013-04-12 04:50:00,
2013-04-11 23:55:00,49.0,45.9,29.74,West,279,8.1,8.1,89,0.00,SCT,FEW,2.35,WeatherDisplay:10.37,2013-04-12 04:55:00,